sensor_id;sensor_type;location;lat;lon;timestamp;pressure;altitude;pressure_sealevel;temperature;humidity
55289;BME280;41154;45.394;5.734;2023-05-23T00:01:40;96922.38;;;15.91;100.00
55289;BME280;41154;45.394;5.734;2023-05-23T00:04:07;96918.59;;;15.92;100.00
55289;BME280;41154;45.394;5.734;2023-05-23T00:06:34;96918.19;;;16.04;100.00
55289;BME280;41154;45.394;5.734;2023-05-23T00:09:01;96919.66;;;15.91;100.00
55289;BME280;41154;45.394;5.734;2023-05-23T00:11:27;96920.13;;;15.98;100.00
55289;BME280;41154;45.394;5.734;2023-05-23T00:13:57;96919.56;;;16.01;100.00
55289;BME280;41154;45.394;5.734;2023-05-23T00:16:25;96922.44;;;15.86;100.00
55289;BME280;41154;45.394;5.734;2023-05-23T00:18:51;96915.53;;;16.23;100.00
55289;BME280;41154;45.394;5.734;2023-05-23T00:21:17;96907.16;;;16.43;100.00
55289;BME280;41154;45.394;5.734;2023-05-23T00:23:43;96907.75;;;16.40;100.00
55289;BME280;41154;45.394;5.734;2023-05-23T00:26:09;96892.59;;;16.39;100.00
55289;BME280;41154;45.394;5.734;2023-05-23T00:28:37;96897.41;;;16.23;100.00
55289;BME280;41154;45.394;5.734;2023-05-23T00:31:03;96889.75;;;16.30;100.00
55289;BME280;41154;45.394;5.734;2023-05-23T00:33:30;96902.47;;;16.30;100.00
55289;BME280;41154;45.394;5.734;2023-05-23T00:35:59;96897.34;;;16.04;100.00
55289;BME280;41154;45.394;5.734;2023-05-23T00:38:24;96894.56;;;16.09;100.00
55289;BME280;41154;45.394;5.734;2023-05-23T00:40:51;96887.47;;;15.94;100.00
55289;BME280;41154;45.394;5.734;2023-05-23T00:43:17;96903.28;;;16.06;100.00
55289;BME280;41154;45.394;5.734;2023-05-23T00:45:46;96896.72;;;15.88;100.00
55289;BME280;41154;45.394;5.734;2023-05-23T00:48:12;96901.44;;;15.72;100.00
55289;BME280;41154;45.394;5.734;2023-05-23T00:50:39;96903.63;;;15.70;100.00
55289;BME280;41154;45.394;5.734;2023-05-23T00:53:05;96899.75;;;15.81;100.00
55289;BME280;41154;45.394;5.734;2023-05-23T00:55:31;96893.06;;;15.74;100.00
55289;BME280;41154;45.394;5.734;2023-05-23T00:57:57;96894.03;;;15.83;100.00
55289;BME280;41154;45.394;5.734;2023-05-23T01:00:26;96902.03;;;15.69;100.00
55289;BME280;41154;45.394;5.734;2023-05-23T01:02:53;96897.22;;;15.61;100.00
55289;BME280;41154;45.394;5.734;2023-05-23T01:05:20;96900.53;;;15.53;100.00
55289;BME280;41154;45.394;5.734;2023-05-23T01:07:50;96898.06;;;15.56;100.00
55289;BME280;41154;45.394;5.734;2023-05-23T01:10:20;96899.13;;;15.60;100.00
55289;BME280;41154;45.394;5.734;2023-05-23T01:15:35;96900.41;;;15.68;100.00
55289;BME280;41154;45.394;5.734;2023-05-23T01:18:18;96894.94;;;15.73;100.00
55289;BME280;41154;45.394;5.734;2023-05-23T01:20:54;96892.78;;;15.75;100.00
55289;BME280;41154;45.394;5.734;2023-05-23T01:26:40;96901.84;;;15.90;100.00
55289;BME280;41154;45.394;5.734;2023-05-23T01:29:16;96894.88;;;15.84;100.00
55289;BME280;41154;45.394;5.734;2023-05-23T01:31:45;96900.41;;;15.68;100.00
55289;BME280;41154;45.394;5.734;2023-05-23T01:34:14;96903.16;;;15.63;100.00
55289;BME280;41154;45.394;5.734;2023-05-23T01:36:43;96899.69;;;15.57;100.00
55289;BME280;41154;45.394;5.734;2023-05-23T01:39:09;96891.53;;;15.62;100.00
55289;BME280;41154;45.394;5.734;2023-05-23T01:41:35;96892.50;;;15.77;100.00
55289;BME280;41154;45.394;5.734;2023-05-23T01:44:02;96896.03;;;15.72;100.00
55289;BME280;41154;45.394;5.734;2023-05-23T01:46:28;96893.44;;;15.62;100.00
55289;BME280;41154;45.394;5.734;2023-05-23T01:48:55;96886.94;;;15.63;100.00
55289;BME280;41154;45.394;5.734;2023-05-23T01:51:22;96882.56;;;15.67;100.00
55289;BME280;41154;45.394;5.734;2023-05-23T01:53:50;96885.31;;;15.62;100.00
55289;BME280;41154;45.394;5.734;2023-05-23T01:56:16;96877.69;;;15.69;100.00
55289;BME280;41154;45.394;5.734;2023-05-23T01:58:42;96873.94;;;15.65;100.00
55289;BME280;41154;45.394;5.734;2023-05-23T02:01:09;96875.59;;;15.61;100.00
55289;BME280;41154;45.394;5.734;2023-05-23T02:03:35;96864.47;;;15.62;100.00
55289;BME280;41154;45.394;5.734;2023-05-23T02:06:01;96873.94;;;15.65;100.00
55289;BME280;41154;45.394;5.734;2023-05-23T02:08:27;96881.75;;;15.67;100.00
55289;BME280;41154;45.394;5.734;2023-05-23T02:10:53;96878.78;;;15.68;100.00
55289;BME280;41154;45.394;5.734;2023-05-23T02:13:19;96874.38;;;15.77;100.00
55289;BME280;41154;45.394;5.734;2023-05-23T02:15:44;96880.59;;;15.78;100.00
55289;BME280;41154;45.394;5.734;2023-05-23T02:18:10;96876.00;;;15.73;100.00
55289;BME280;41154;45.394;5.734;2023-05-23T02:20:38;96867.38;;;15.71;100.00
55289;BME280;41154;45.394;5.734;2023-05-23T02:23:05;96871.16;;;15.70;100.00
55289;BME280;41154;45.394;5.734;2023-05-23T02:25:31;96867.44;;;15.66;100.00
55289;BME280;41154;45.394;5.734;2023-05-23T02:27:56;96871.84;;;15.57;100.00
55289;BME280;41154;45.394;5.734;2023-05-23T02:30:22;96873.84;;;15.75;100.00
55289;BME280;41154;45.394;5.734;2023-05-23T02:32:48;96876.63;;;15.94;100.00
55289;BME280;41154;45.394;5.734;2023-05-23T02:35:14;96875.38;;;15.87;100.00
55289;BME280;41154;45.394;5.734;2023-05-23T02:37:41;96882.44;;;15.82;100.00
55289;BME280;41154;45.394;5.734;2023-05-23T02:40:07;96874.72;;;15.66;100.00
55289;BME280;41154;45.394;5.734;2023-05-23T02:42:35;96865.88;;;15.60;100.00
55289;BME280;41154;45.394;5.734;2023-05-23T02:45:00;96870.31;;;15.80;100.00
55289;BME280;41154;45.394;5.734;2023-05-23T02:47:26;96862.69;;;15.82;100.00
55289;BME280;41154;45.394;5.734;2023-05-23T02:49:52;96868.53;;;15.65;100.00
55289;BME280;41154;45.394;5.734;2023-05-23T02:52:18;96869.56;;;15.69;100.00
55289;BME280;41154;45.394;5.734;2023-05-23T02:54:44;96860.28;;;15.80;100.00
55289;BME280;41154;45.394;5.734;2023-05-23T02:57:11;96856.47;;;15.81;100.00
55289;BME280;41154;45.394;5.734;2023-05-23T02:59:39;96863.59;;;15.72;100.00
55289;BME280;41154;45.394;5.734;2023-05-23T03:02:05;96864.84;;;15.85;100.00
55289;BME280;41154;45.394;5.734;2023-05-23T03:04:31;96863.16;;;15.89;100.00
55289;BME280;41154;45.394;5.734;2023-05-23T03:06:57;96853.31;;;15.98;100.00
55289;BME280;41154;45.394;5.734;2023-05-23T03:09:24;96865.19;;;15.73;100.00
55289;BME280;41154;45.394;5.734;2023-05-23T03:11:51;96862.88;;;15.61;100.00
55289;BME280;41154;45.394;5.734;2023-05-23T03:14:16;96853.72;;;15.57;100.00
55289;BME280;41154;45.394;5.734;2023-05-23T03:16:42;96861.03;;;15.57;100.00
55289;BME280;41154;45.394;5.734;2023-05-23T03:19:08;96850.81;;;15.49;100.00
55289;BME280;41154;45.394;5.734;2023-05-23T03:21:34;96849.25;;;15.42;100.00
55289;BME280;41154;45.394;5.734;2023-05-23T03:24:00;96853.94;;;15.32;100.00
55289;BME280;41154;45.394;5.734;2023-05-23T03:26:30;96852.94;;;15.27;100.00
55289;BME280;41154;45.394;5.734;2023-05-23T03:28:56;96856.44;;;15.28;100.00
55289;BME280;41154;45.394;5.734;2023-05-23T03:31:21;96861.84;;;15.28;100.00
55289;BME280;41154;45.394;5.734;2023-05-23T03:33:47;96854.84;;;15.27;100.00
55289;BME280;41154;45.394;5.734;2023-05-23T03:36:13;96852.41;;;15.25;100.00
55289;BME280;41154;45.394;5.734;2023-05-23T03:38:39;96855.63;;;15.27;100.00
55289;BME280;41154;45.394;5.734;2023-05-23T03:41:05;96861.31;;;15.26;100.00
55289;BME280;41154;45.394;5.734;2023-05-23T03:43:31;96860.19;;;15.32;100.00
55289;BME280;41154;45.394;5.734;2023-05-23T03:45:59;96862.25;;;15.40;100.00
55289;BME280;41154;45.394;5.734;2023-05-23T03:48:25;96862.59;;;15.34;100.00
55289;BME280;41154;45.394;5.734;2023-05-23T03:50:51;96866.81;;;15.45;100.00
55289;BME280;41154;45.394;5.734;2023-05-23T03:53:17;96868.00;;;15.34;100.00
55289;BME280;41154;45.394;5.734;2023-05-23T03:55:43;96854.47;;;15.04;100.00
55289;BME280;41154;45.394;5.734;2023-05-23T03:58:10;96860.72;;;15.00;100.00
55289;BME280;41154;45.394;5.734;2023-05-23T04:00:37;96863.41;;;15.00;100.00
55289;BME280;41154;45.394;5.734;2023-05-23T04:03:05;96854.81;;;14.98;100.00
55289;BME280;41154;45.394;5.734;2023-05-23T04:05:33;96864.78;;;14.97;100.00
55289;BME280;41154;45.394;5.734;2023-05-23T04:07:59;96854.81;;;14.98;100.00
55289;BME280;41154;45.394;5.734;2023-05-23T04:10:26;96858.91;;;14.90;100.00
55289;BME280;41154;45.394;5.734;2023-05-23T04:12:52;96860.50;;;14.91;100.00
55289;BME280;41154;45.394;5.734;2023-05-23T04:15:17;96848.00;;;15.05;100.00
55289;BME280;41154;45.394;5.734;2023-05-23T04:17:55;96855.66;;;14.93;100.00
55289;BME280;41154;45.394;5.734;2023-05-23T04:20:23;96845.13;;;14.86;100.00
55289;BME280;41154;45.394;5.734;2023-05-23T04:22:49;96852.22;;;14.82;100.00
55289;BME280;41154;45.394;5.734;2023-05-23T04:25:15;96858.44;;;14.78;100.00
55289;BME280;41154;45.394;5.734;2023-05-23T04:27:57;96868.69;;;14.76;100.00
55289;BME280;41154;45.394;5.734;2023-05-23T04:30:24;96861.47;;;14.71;100.00
55289;BME280;41154;45.394;5.734;2023-05-23T04:32:50;96861.75;;;14.69;100.00
55289;BME280;41154;45.394;5.734;2023-05-23T04:35:16;96875.50;;;14.73;100.00
55289;BME280;41154;45.394;5.734;2023-05-23T04:37:42;96861.78;;;14.99;100.00
55289;BME280;41154;45.394;5.734;2023-05-23T04:40:10;96873.81;;;14.82;100.00
55289;BME280;41154;45.394;5.734;2023-05-23T04:42:56;96870.41;;;14.66;100.00
55289;BME280;41154;45.394;5.734;2023-05-23T04:45:51;96870.94;;;14.58;100.00
55289;BME280;41154;45.394;5.734;2023-05-23T04:48:36;96870.03;;;14.78;100.00
55289;BME280;41154;45.394;5.734;2023-05-23T04:51:03;96866.91;;;15.00;100.00
55289;BME280;41154;45.394;5.734;2023-05-23T04:53:42;96867.88;;;14.80;100.00
55289;BME280;41154;45.394;5.734;2023-05-23T04:56:10;96873.06;;;14.71;100.00
55289;BME280;41154;45.394;5.734;2023-05-23T04:58:38;96870.09;;;14.73;100.00
55289;BME280;41154;45.394;5.734;2023-05-23T05:01:07;96872.78;;;14.73;100.00
55289;BME280;41154;45.394;5.734;2023-05-23T05:03:34;96869.25;;;14.78;100.00
55289;BME280;41154;45.394;5.734;2023-05-23T05:06:00;96874.59;;;14.83;100.00
55289;BME280;41154;45.394;5.734;2023-05-23T05:08:26;96874.03;;;14.86;100.00
55289;BME280;41154;45.394;5.734;2023-05-23T05:10:56;96875.56;;;15.02;100.00
55289;BME280;41154;45.394;5.734;2023-05-23T05:13:22;96879.09;;;15.32;100.00
55289;BME280;41154;45.394;5.734;2023-05-23T05:15:50;96876.13;;;15.28;100.00
55289;BME280;41154;45.394;5.734;2023-05-23T05:18:17;96876.50;;;15.51;100.00
55289;BME280;41154;45.394;5.734;2023-05-23T05:20:44;96891.94;;;15.45;100.00
55289;BME280;41154;45.394;5.734;2023-05-23T05:23:09;96889.63;;;15.34;100.00
55289;BME280;41154;45.394;5.734;2023-05-23T05:25:36;96889.69;;;15.23;100.00
55289;BME280;41154;45.394;5.734;2023-05-23T05:28:03;96893.22;;;15.53;100.00
55289;BME280;41154;45.394;5.734;2023-05-23T05:30:35;96892.94;;;15.55;100.00
55289;BME280;41154;45.394;5.734;2023-05-23T05:33:02;96897.91;;;15.42;100.00
55289;BME280;41154;45.394;5.734;2023-05-23T05:35:30;96900.94;;;15.36;100.00
55289;BME280;41154;45.394;5.734;2023-05-23T05:37:56;96903.44;;;15.32;100.00
55289;BME280;41154;45.394;5.734;2023-05-23T05:40:22;96903.38;;;15.37;100.00
55289;BME280;41154;45.394;5.734;2023-05-23T05:42:49;96909.84;;;15.36;100.00
55289;BME280;41154;45.394;5.734;2023-05-23T05:45:15;96909.34;;;15.34;100.00
55289;BME280;41154;45.394;5.734;2023-05-23T05:47:44;96910.97;;;15.35;100.00
55289;BME280;41154;45.394;5.734;2023-05-23T05:50:10;96904.16;;;15.43;100.00
55289;BME280;41154;45.394;5.734;2023-05-23T05:52:37;96899.31;;;15.40;100.00
55289;BME280;41154;45.394;5.734;2023-05-23T05:55:08;96899.31;;;15.40;100.00
55289;BME280;41154;45.394;5.734;2023-05-23T05:57:39;96897.84;;;15.53;100.00
55289;BME280;41154;45.394;5.734;2023-05-23T06:00:09;96893.06;;;15.74;100.00
55289;BME280;41154;45.394;5.734;2023-05-23T06:02:44;96897.56;;;15.84;100.00
55289;BME280;41154;45.394;5.734;2023-05-23T06:05:20;96894.88;;;15.84;100.00
55289;BME280;41154;45.394;5.734;2023-05-23T06:07:47;96896.75;;;15.83;100.00
55289;BME280;41154;45.394;5.734;2023-05-23T06:10:14;96888.91;;;15.81;100.00
55289;BME280;41154;45.394;5.734;2023-05-23T06:12:40;96893.56;;;16.05;100.00
55289;BME280;41154;45.394;5.734;2023-05-23T06:15:07;96884.47;;;16.39;100.00
55289;BME280;41154;45.394;5.734;2023-05-23T06:17:36;96883.38;;;16.40;100.00
55289;BME280;41154;45.394;5.734;2023-05-23T06:20:02;96894.53;;;16.58;100.00
55289;BME280;41154;45.394;5.734;2023-05-23T06:22:30;96897.22;;;16.58;100.00
55289;BME280;41154;45.394;5.734;2023-05-23T06:24:56;96890.06;;;16.67;100.00
55289;BME280;41154;45.394;5.734;2023-05-23T06:27:22;96893.56;;;16.92;100.00
55289;BME280;41154;45.394;5.734;2023-05-23T06:29:48;96895.47;;;16.91;100.00
55289;BME280;41154;45.394;5.734;2023-05-23T06:32:14;96899.19;;;17.14;100.00
55289;BME280;41154;45.394;5.734;2023-05-23T06:34:40;96898.94;;;17.30;100.00
55289;BME280;41154;45.394;5.734;2023-05-23T06:37:06;96910.63;;;17.11;100.00
55289;BME280;41154;45.394;5.734;2023-05-23T06:39:31;96905.53;;;17.23;100.00
55289;BME280;41154;45.394;5.734;2023-05-23T06:41:58;96914.53;;;17.38;100.00
55289;BME280;41154;45.394;5.734;2023-05-23T06:44:23;96907.66;;;17.27;100.00
55289;BME280;41154;45.394;5.734;2023-05-23T06:46:52;96903.44;;;17.53;100.00
55289;BME280;41154;45.394;5.734;2023-05-23T06:49:24;96899.25;;;17.75;100.00
55289;BME280;41154;45.394;5.734;2023-05-23T06:51:50;96901.44;;;17.73;100.00
55289;BME280;41154;45.394;5.734;2023-05-23T06:54:18;96905.91;;;17.83;100.00
55289;BME280;41154;45.394;5.734;2023-05-23T06:56:44;96894.09;;;17.92;100.00
55289;BME280;41154;45.394;5.734;2023-05-23T06:59:10;96902.28;;;17.73;100.00
55289;BME280;41154;45.394;5.734;2023-05-23T07:01:35;96902.59;;;17.86;100.00
55289;BME280;41154;45.394;5.734;2023-05-23T07:04:01;96901.34;;;18.25;100.00
55289;BME280;41154;45.394;5.734;2023-05-23T07:06:28;96910.97;;;18.45;100.00
55289;BME280;41154;45.394;5.734;2023-05-23T07:08:53;96905.88;;;18.94;100.00
55289;BME280;41154;45.394;5.734;2023-05-23T07:11:21;96910.34;;;18.48;100.00
55289;BME280;41154;45.394;5.734;2023-05-23T07:13:54;96904.34;;;18.37;100.00
55289;BME280;41154;45.394;5.734;2023-05-23T07:16:30;96906.66;;;18.30;100.00
55289;BME280;41154;45.394;5.734;2023-05-23T07:19:01;96906.25;;;18.50;100.00
55289;BME280;41154;45.394;5.734;2023-05-23T07:21:34;96910.94;;;18.86;100.00
55289;BME280;41154;45.394;5.734;2023-05-23T07:24:00;96915.75;;;18.76;100.00
55289;BME280;41154;45.394;5.734;2023-05-23T07:26:27;96907.72;;;18.71;100.00
55289;BME280;41154;45.394;5.734;2023-05-23T07:28:55;96904.34;;;18.09;100.00
55289;BME280;41154;45.394;5.734;2023-05-23T07:31:21;96905.38;;;17.81;100.00
55289;BME280;41154;45.394;5.734;2023-05-23T07:33:50;96911.53;;;17.86;100.00
55289;BME280;41154;45.394;5.734;2023-05-23T07:36:21;96905.69;;;17.79;100.00
55289;BME280;41154;45.394;5.734;2023-05-23T07:38:50;96918.22;;;18.36;100.00
55289;BME280;41154;45.394;5.734;2023-05-23T07:41:17;96912.78;;;18.49;100.00
55289;BME280;41154;45.394;5.734;2023-05-23T07:43:43;96911.97;;;18.49;100.00
55289;BME280;41154;45.394;5.734;2023-05-23T07:46:09;96907.97;;;18.19;100.00
55289;BME280;41154;45.394;5.734;2023-05-23T07:48:36;96914.09;;;17.64;100.00
55289;BME280;41154;45.394;5.734;2023-05-23T07:51:02;96914.63;;;17.66;100.00
55289;BME280;41154;45.394;5.734;2023-05-23T07:53:28;96908.31;;;17.84;100.00
55289;BME280;41154;45.394;5.734;2023-05-23T07:55:56;96920.34;;;18.11;100.00
55289;BME280;41154;45.394;5.734;2023-05-23T07:58:26;96913.59;;;18.22;100.00
55289;BME280;41154;45.394;5.734;2023-05-23T08:00:51;96912.19;;;17.97;100.00
55289;BME280;41154;45.394;5.734;2023-05-23T08:03:38;96906.78;;;18.39;100.00
55289;BME280;41154;45.394;5.734;2023-05-23T08:06:09;96907.72;;;18.84;100.00
55289;BME280;41154;45.394;5.734;2023-05-23T08:08:35;96905.44;;;18.64;100.00
55289;BME280;41154;45.394;5.734;2023-05-23T08:11:01;96902.00;;;18.44;100.00
55289;BME280;41154;45.394;5.734;2023-05-23T08:13:35;96902.31;;;17.87;100.00
55289;BME280;41154;45.394;5.734;2023-05-23T08:16:30;96903.69;;;17.85;100.00
55289;BME280;41154;45.394;5.734;2023-05-23T08:18:56;96903.22;;;18.24;100.00
55289;BME280;41154;45.394;5.734;2023-05-23T08:21:22;96902.69;;;18.78;100.00
55289;BME280;41154;45.394;5.734;2023-05-23T08:23:48;96909.97;;;19.05;100.00
55289;BME280;41154;45.394;5.734;2023-05-23T08:26:14;96910.00;;;18.91;100.00
55289;BME280;41154;45.394;5.734;2023-05-23T08:28:40;96914.31;;;18.14;100.00
55289;BME280;41154;45.394;5.734;2023-05-23T08:31:06;96914.63;;;18.40;100.00
55289;BME280;41154;45.394;5.734;2023-05-23T08:33:33;96911.38;;;18.24;100.00
55289;BME280;41154;45.394;5.734;2023-05-23T08:35:58;96917.28;;;18.68;100.00
55289;BME280;41154;45.394;5.734;2023-05-23T08:38:24;96911.94;;;18.91;100.00
55289;BME280;41154;45.394;5.734;2023-05-23T08:41:22;96911.69;;;18.23;100.00
55289;BME280;41154;45.394;5.734;2023-05-23T08:43:52;96906.72;;;18.66;100.00
55289;BME280;41154;45.394;5.734;2023-05-23T08:46:25;96913.56;;;18.92;100.00
55289;BME280;41154;45.394;5.734;2023-05-23T08:48:53;96919.50;;;19.39;100.00
55289;BME280;41154;45.394;5.734;2023-05-23T08:51:21;96922.38;;;18.97;100.00
55289;BME280;41154;45.394;5.734;2023-05-23T08:53:48;96918.13;;;19.05;100.00
55289;BME280;41154;45.394;5.734;2023-05-23T08:56:15;96919.75;;;19.29;100.00
55289;BME280;41154;45.394;5.734;2023-05-23T08:58:45;96923.09;;;19.26;100.00
55289;BME280;41154;45.394;5.734;2023-05-23T09:01:13;96917.69;;;19.57;100.00
55289;BME280;41154;45.394;5.734;2023-05-23T09:03:40;96918.44;;;20.34;100.00
55289;BME280;41154;45.394;5.734;2023-05-23T09:06:29;96921.22;;;20.11;100.00
55289;BME280;41154;45.394;5.734;2023-05-23T09:08:57;96921.50;;;20.01;100.00
55289;BME280;41154;45.394;5.734;2023-05-23T09:11:23;96922.38;;;19.79;100.00
55289;BME280;41154;45.394;5.734;2023-05-23T09:13:50;96929.38;;;20.11;100.00
55289;BME280;41154;45.394;5.734;2023-05-23T09:16:17;96924.03;;;20.87;100.00
55289;BME280;41154;45.394;5.734;2023-05-23T09:18:55;96927.41;;;20.35;100.00
55289;BME280;41154;45.394;5.734;2023-05-23T09:21:23;96932.47;;;20.19;100.00
55289;BME280;41154;45.394;5.734;2023-05-23T09:24:02;96919.56;;;19.93;100.00
55289;BME280;41154;45.394;5.734;2023-05-23T09:26:29;96928.28;;;20.13;100.00
55289;BME280;41154;45.394;5.734;2023-05-23T09:28:58;96921.63;;;20.36;100.00
55289;BME280;41154;45.394;5.734;2023-05-23T09:31:27;96925.88;;;19.80;100.00
55289;BME280;41154;45.394;5.734;2023-05-23T09:33:57;96924.75;;;19.58;100.00
55289;BME280;41154;45.394;5.734;2023-05-23T09:36:25;96927.16;;;19.60;100.00
55289;BME280;41154;45.394;5.734;2023-05-23T09:38:52;96917.19;;;20.00;100.00
55289;BME280;41154;45.394;5.734;2023-05-23T09:41:19;96931.53;;;20.72;100.00
55289;BME280;41154;45.394;5.734;2023-05-23T09:43:50;96927.06;;;20.76;100.00
55289;BME280;41154;45.394;5.734;2023-05-23T09:46:17;96925.78;;;20.74;100.00
55289;BME280;41154;45.394;5.734;2023-05-23T09:48:50;96926.44;;;20.31;100.00
55289;BME280;41154;45.394;5.734;2023-05-23T09:51:19;96927.72;;;19.70;100.00
55289;BME280;41154;45.394;5.734;2023-05-23T09:53:49;96924.19;;;20.33;100.00
55289;BME280;41154;45.394;5.734;2023-05-23T09:56:16;96927.75;;;21.26;100.00
55289;BME280;41154;45.394;5.734;2023-05-23T09:58:46;96925.50;;;21.28;100.00
55289;BME280;41154;45.394;5.734;2023-05-23T10:01:12;96917.97;;;20.90;100.00
55289;BME280;41154;45.394;5.734;2023-05-23T10:03:44;96925.16;;;19.97;100.00
55289;BME280;41154;45.394;5.734;2023-05-23T10:06:33;96918.44;;;19.94;100.00
55289;BME280;41154;45.394;5.734;2023-05-23T10:09:05;96918.84;;;19.56;100.00
55289;BME280;41154;45.394;5.734;2023-05-23T10:14:06;96921.06;;;19.31;100.00
55289;BME280;41154;45.394;5.734;2023-05-23T10:19:31;96914.66;;;20.13;100.00
55289;BME280;41154;45.394;5.734;2023-05-23T10:22:05;96914.50;;;19.78;100.00
55289;BME280;41154;45.394;5.734;2023-05-23T10:24:32;96914.28;;;20.45;100.00
55289;BME280;41154;45.394;5.734;2023-05-23T10:26:58;96913.28;;;20.90;100.00
55289;BME280;41154;45.394;5.734;2023-05-23T10:29:26;96917.47;;;21.14;100.00
55289;BME280;41154;45.394;5.734;2023-05-23T10:31:53;96921.31;;;21.13;100.00
55289;BME280;41154;45.394;5.734;2023-05-23T10:34:33;96921.66;;;21.29;100.00
55289;BME280;41154;45.394;5.734;2023-05-23T10:37:03;96927.28;;;21.59;100.00
55289;BME280;41154;45.394;5.734;2023-05-23T10:42:22;96922.22;;;22.43;100.00
55289;BME280;41154;45.394;5.734;2023-05-23T10:44:52;96925.00;;;21.43;100.00
55289;BME280;41154;45.394;5.734;2023-05-23T10:47:27;96928.06;;;20.98;100.00
55289;BME280;41154;45.394;5.734;2023-05-23T10:49:55;96917.97;;;20.32;100.00
55289;BME280;41154;45.394;5.734;2023-05-23T10:52:23;96916.97;;;19.65;100.00
55289;BME280;41154;45.394;5.734;2023-05-23T10:54:53;96922.13;;;19.75;100.00
55289;BME280;41154;45.394;5.734;2023-05-23T10:57:25;96918.38;;;20.17;100.00
55289;BME280;41154;45.394;5.734;2023-05-23T10:59:53;96910.31;;;20.11;100.00
55289;BME280;41154;45.394;5.734;2023-05-23T11:02:25;96907.81;;;19.84;100.00
55289;BME280;41154;45.394;5.734;2023-05-23T11:05:23;96912.34;;;19.88;100.00
55289;BME280;41154;45.394;5.734;2023-05-23T11:08:10;96911.94;;;20.13;100.00
55289;BME280;41154;45.394;5.734;2023-05-23T11:11:02;96913.66;;;20.48;100.00
55289;BME280;41154;45.394;5.734;2023-05-23T11:13:57;96915.91;;;20.55;100.00
55289;BME280;41154;45.394;5.734;2023-05-23T11:16:30;96913.06;;;20.60;100.00
55289;BME280;41154;45.394;5.734;2023-05-23T11:21:53;96903.50;;;21.33;100.00
55289;BME280;41154;45.394;5.734;2023-05-23T11:24:20;96911.72;;;21.24;100.00
55289;BME280;41154;45.394;5.734;2023-05-23T11:26:52;96912.81;;;21.32;100.00
55289;BME280;41154;45.394;5.734;2023-05-23T11:29:28;96913.44;;;21.11;100.00
55289;BME280;41154;45.394;5.734;2023-05-23T11:31:54;96914.25;;;20.86;100.00
55289;BME280;41154;45.394;5.734;2023-05-23T11:34:24;96908.84;;;20.37;100.00
55289;BME280;41154;45.394;5.734;2023-05-23T11:36:54;96913.78;;;20.35;100.00
55289;BME280;41154;45.394;5.734;2023-05-23T11:39:21;96909.13;;;20.26;100.00
55289;BME280;41154;45.394;5.734;2023-05-23T11:42:00;96916.94;;;19.34;100.00
55289;BME280;41154;45.394;5.734;2023-05-23T11:44:26;96919.81;;;19.15;100.00
55289;BME280;41154;45.394;5.734;2023-05-23T11:47:02;96913.03;;;18.90;100.00
55289;BME280;41154;45.394;5.734;2023-05-23T11:49:30;96915.78;;;18.62;100.00
55289;BME280;41154;45.394;5.734;2023-05-23T11:52:00;96910.06;;;18.49;100.00
55289;BME280;41154;45.394;5.734;2023-05-23T11:54:27;96915.59;;;18.44;100.00
55289;BME280;41154;45.394;5.734;2023-05-23T11:56:53;96911.28;;;18.43;100.00
55289;BME280;41154;45.394;5.734;2023-05-23T11:59:24;96911.59;;;18.28;100.00
55289;BME280;41154;45.394;5.734;2023-05-23T12:01:54;96904.44;;;18.18;100.00
55289;BME280;41154;45.394;5.734;2023-05-23T12:04:20;96905.56;;;18.17;100.00
55289;BME280;41154;45.394;5.734;2023-05-23T12:06:47;96900.13;;;18.17;100.00
55289;BME280;41154;45.394;5.734;2023-05-23T12:09:13;96909.47;;;18.39;100.00
55289;BME280;41154;45.394;5.734;2023-05-23T12:11:41;96909.53;;;18.61;100.00
55289;BME280;41154;45.394;5.734;2023-05-23T12:14:07;96900.19;;;18.54;100.00
55289;BME280;41154;45.394;5.734;2023-05-23T12:16:34;96905.81;;;18.57;100.00
55289;BME280;41154;45.394;5.734;2023-05-23T12:19:03;96904.59;;;18.63;100.00
55289;BME280;41154;45.394;5.734;2023-05-23T12:21:46;96903.44;;;18.28;100.00
55289;BME280;41154;45.394;5.734;2023-05-23T12:24:20;96906.25;;;18.23;100.00
55289;BME280;41154;45.394;5.734;2023-05-23T12:26:52;96903.53;;;18.37;100.00
55289;BME280;41154;45.394;5.734;2023-05-23T12:29:26;96901.09;;;18.63;100.00
55289;BME280;41154;45.394;5.734;2023-05-23T12:31:52;96904.50;;;18.68;100.00
55289;BME280;41154;45.394;5.734;2023-05-23T12:34:19;96894.47;;;18.41;100.00
55289;BME280;41154;45.394;5.734;2023-05-23T12:36:46;96901.22;;;18.30;100.00
55289;BME280;41154;45.394;5.734;2023-05-23T12:39:14;96903.22;;;18.52;100.00
55289;BME280;41154;45.394;5.734;2023-05-23T12:41:43;96893.94;;;18.67;100.00
55289;BME280;41154;45.394;5.734;2023-05-23T12:44:09;96902.16;;;18.76;100.00
55289;BME280;41154;45.394;5.734;2023-05-23T12:46:36;96903.06;;;18.85;100.00
55289;BME280;41154;45.394;5.734;2023-05-23T12:49:01;96900.88;;;18.87;100.00
55289;BME280;41154;45.394;5.734;2023-05-23T12:51:28;96894.41;;;18.83;100.00
55289;BME280;41154;45.394;5.734;2023-05-23T12:53:53;96890.06;;;18.82;100.00
55289;BME280;41154;45.394;5.734;2023-05-23T12:56:20;96898.75;;;18.84;100.00
55289;BME280;41154;45.394;5.734;2023-05-23T12:58:46;96901.06;;;18.91;100.00
55289;BME280;41154;45.394;5.734;2023-05-23T13:01:13;96905.56;;;18.95;100.00
55289;BME280;41154;45.394;5.734;2023-05-23T13:03:38;96894.88;;;18.35;100.00
55289;BME280;41154;45.394;5.734;2023-05-23T13:06:05;96902.50;;;18.60;100.00
55289;BME280;41154;45.394;5.734;2023-05-23T13:08:31;96898.78;;;18.56;100.00
55289;BME280;41154;45.394;5.734;2023-05-23T13:10:57;96897.31;;;18.36;100.00
55289;BME280;41154;45.394;5.734;2023-05-23T13:13:23;96897.00;;;18.52;100.00
55289;BME280;41154;45.394;5.734;2023-05-23T13:15:49;96891.44;;;18.57;100.00